Time;durP1;ratioP1;P1;durP2;ratioP2;P2;SDS_P1;SDS_P2;PMS_P1;PMS_P2;Temp;Humidity;BMP_temperature;BMP_pressure;BME280_temperature;BME280_humidity;BME280_pressure;Samples;Min_cycle;Max_cycle;Signal;HPM_P1;HPM_P2
2023/11/17 00:00:35;;;;;;;;;;;8.80;72.40;;;;;;4977839;28;87071;-62
2023/11/17 00:03:00;;;;;;;;;;;8.80;72.30;;;;;;4980621;28;86957;-62
2023/11/17 00:05:26;;;;;;;;;;;8.80;72.30;;;;;;4977809;28;87506;-62
2023/11/17 00:07:54;;;;;;;;;;;8.80;72.20;;;;;;4980921;28;87047;-63
2023/11/17 00:10:19;;;;;;;;;;;8.80;72.30;;;;;;4978499;28;86120;-63
2023/11/17 00:12:45;;;;;;;;;;;8.80;72.40;;;;;;4976195;28;86969;-62
2023/11/17 00:15:14;;;;;;;;;;;8.80;72.40;;;;;;4979421;28;86947;-62
2023/11/17 00:17:39;;;;;;;;;;;8.80;72.40;;;;;;4984102;28;88779;-63
2023/11/17 00:20:06;;;;;;;;;;;8.80;72.40;;;;;;4978284;28;87838;-62
2023/11/17 00:22:32;;;;;;;;;;;8.70;72.60;;;;;;4977985;28;86868;-63
2023/11/17 00:24:57;;;;;;;;;;;8.70;72.60;;;;;;4977428;28;87637;-62
2023/11/17 00:27:23;;;;;;;;;;;8.70;72.50;;;;;;4975961;28;87609;-62
2023/11/17 00:29:48;;;;;;;;;;;8.60;72.80;;;;;;4981198;28;86964;-62
2023/11/17 00:32:14;;;;;;;;;;;8.70;72.60;;;;;;4978338;28;87102;-62
2023/11/17 00:34:40;;;;;;;;;;;8.70;72.60;;;;;;4982283;28;86265;-63
2023/11/17 00:37:07;;;;;;;;;;;8.70;72.40;;;;;;4982290;28;87633;-63
2023/11/17 00:39:33;;;;;;;;;;;8.70;72.40;;;;;;4978820;28;86988;-63
2023/11/17 00:41:59;;;;;;;;;;;8.70;72.30;;;;;;4977955;28;87927;-62
2023/11/17 00:44:24;;;;;;;;;;;8.70;72.40;;;;;;4980183;28;87645;-63
2023/11/17 00:46:50;;;;;;;;;;;8.70;72.40;;;;;;4981718;28;87180;-62
2023/11/17 00:49:15;;;;;;;;;;;8.70;72.40;;;;;;4983111;28;86920;-63
2023/11/17 00:51:41;;;;;;;;;;;8.70;72.40;;;;;;4977315;28;87039;-61
2023/11/17 00:54:07;;;;;;;;;;;8.70;72.50;;;;;;4981002;28;87020;-63
2023/11/17 00:56:33;;;;;;;;;;;8.70;72.40;;;;;;4977675;28;86801;-62
2023/11/17 00:59:03;;;;;;;;;;;8.70;72.50;;;;;;4979566;28;86293;-63
2023/11/17 01:01:29;;;;;;;;;;;8.60;72.50;;;;;;4975405;28;87068;-63
2023/11/17 01:03:54;;;;;;;;;;;8.60;72.50;;;;;;4981817;28;87009;-62
2023/11/17 01:06:21;;;;;;;;;;;8.60;72.50;;;;;;4959604;28;88025;-62
2023/11/17 01:08:47;;;;;;;;;;;8.60;72.70;;;;;;4984333;28;87846;-63
2023/11/17 01:11:12;;;;;;;;;;;8.60;72.80;;;;;;4979753;28;86915;-63
2023/11/17 01:13:38;;;;;;;;;;;8.60;72.60;;;;;;4974971;28;86942;-63
2023/11/17 01:16:04;;;;;;;;;;;8.60;72.60;;;;;;4980377;28;88016;-63
2023/11/17 01:18:30;;;;;;;;;;;8.60;72.60;;;;;;4977932;28;86978;-63
2023/11/17 01:20:56;;;;;;;;;;;8.60;72.60;;;;;;4984519;28;87003;-63
2023/11/17 01:23:25;;;;;;;;;;;8.60;72.60;;;;;;4980228;28;87076;-63
2023/11/17 01:25:50;;;;;;;;;;;8.60;72.50;;;;;;4978156;28;86980;-62
2023/11/17 01:28:17;;;;;;;;;;;8.60;72.50;;;;;;4979614;28;86928;-63
2023/11/17 01:30:42;;;;;;;;;;;8.60;72.60;;;;;;4961554;28;89547;-63
2023/11/17 01:33:09;;;;;;;;;;;8.50;72.60;;;;;;4982533;28;87029;-63
2023/11/17 01:35:35;;;;;;;;;;;8.60;72.60;;;;;;4979140;28;88208;-62
2023/11/17 01:38:01;;;;;;;;;;;8.60;72.60;;;;;;4979450;28;87083;-62
2023/11/17 01:40:27;;;;;;;;;;;8.50;72.70;;;;;;4977940;28;87487;-62
2023/11/17 01:42:53;;;;;;;;;;;8.50;72.80;;;;;;4979835;28;87477;-62
2023/11/17 01:45:18;;;;;;;;;;;8.50;72.70;;;;;;4980490;28;87008;-63
2023/11/17 01:47:44;;;;;;;;;;;8.50;72.80;;;;;;4980894;28;87355;-62
2023/11/17 01:50:14;;;;;;;;;;;8.50;72.80;;;;;;4979009;28;87482;-63
2023/11/17 01:52:43;;;;;;;;;;;8.50;72.80;;;;;;4978876;28;87005;-63
2023/11/17 01:55:09;;;;;;;;;;;8.40;72.70;;;;;;4978826;28;87958;-63
2023/11/17 01:57:37;;;;;;;;;;;8.40;72.90;;;;;;4979913;28;86987;-63
2023/11/17 02:00:06;;;;;;;;;;;8.40;72.90;;;;;;4979209;28;86997;-63
2023/11/17 02:02:35;;;;;;;;;;;8.40;72.80;;;;;;4980727;28;87661;-63
2023/11/17 02:05:01;;;;;;;;;;;8.40;72.90;;;;;;4978987;28;87057;-62
2023/11/17 02:07:34;;;;;;;;;;;8.40;72.80;;;;;;4981473;28;87059;-63
2023/11/17 02:10:06;;;;;;;;;;;8.40;72.90;;;;;;4977598;28;87597;-63
2023/11/17 02:12:46;;;;;;;;;;;8.40;73.00;;;;;;4981508;28;86218;-62
2023/11/17 02:15:14;;;;;;;;;;;8.40;72.90;;;;;;4980213;28;86963;-62
2023/11/17 02:17:44;;;;;;;;;;;8.40;72.70;;;;;;4982608;28;87650;-62
2023/11/17 02:20:19;;;;;;;;;;;8.40;73.00;;;;;;4977074;28;87894;-63
2023/11/17 02:22:49;;;;;;;;;;;8.40;73.00;;;;;;4979545;28;87868;-63
2023/11/17 02:25:32;;;;;;;;;;;8.30;72.80;;;;;;4976152;28;87001;-63
2023/11/17 02:28:20;;;;;;;;;;;8.40;73.10;;;;;;4977968;28;86990;-63
2023/11/17 02:30:55;;;;;;;;;;;8.30;72.80;;;;;;4977564;28;87982;-62
2023/11/17 02:33:30;;;;;;;;;;;8.40;73.00;;;;;;4958791;28;86869;-63
2023/11/17 02:35:55;;;;;;;;;;;8.30;72.90;;;;;;4979676;28;86915;-62
2023/11/17 02:38:21;;;;;;;;;;;8.30;73.00;;;;;;4976570;28;86956;-61
2023/11/17 02:40:47;;;;;;;;;;;8.30;73.00;;;;;;4980248;28;87648;-62
2023/11/17 02:43:13;;;;;;;;;;;8.30;73.10;;;;;;4977903;28;87647;-62
2023/11/17 02:45:38;;;;;;;;;;;8.30;73.10;;;;;;4978661;28;87925;-63
2023/11/17 02:48:04;;;;;;;;;;;8.30;73.20;;;;;;4976892;28;87736;-63
2023/11/17 02:50:38;;;;;;;;;;;8.30;73.10;;;;;;4977989;28;87066;-63
2023/11/17 02:53:23;;;;;;;;;;;8.30;73.10;;;;;;4976581;28;87145;-63
2023/11/17 02:55:49;;;;;;;;;;;8.30;73.00;;;;;;4976784;28;87268;-62
2023/11/17 02:58:16;;;;;;;;;;;8.30;73.10;;;;;;4978852;28;87496;-63
2023/11/17 03:00:43;;;;;;;;;;;8.30;73.00;;;;;;4981049;28;87069;-63
2023/11/17 03:03:08;;;;;;;;;;;8.20;73.30;;;;;;4976774;28;86182;-63
2023/11/17 03:05:36;;;;;;;;;;;8.30;73.10;;;;;;4984917;28;87113;-63
2023/11/17 03:08:02;;;;;;;;;;;8.20;73.10;;;;;;4976269;28;88452;-63
2023/11/17 03:10:28;;;;;;;;;;;8.20;73.10;;;;;;4975679;28;87876;-62
2023/11/17 03:12:56;;;;;;;;;;;8.20;73.10;;;;;;4979993;28;87104;-63
2023/11/17 03:15:22;;;;;;;;;;;8.20;73.30;;;;;;4977780;28;87430;-59
2023/11/17 03:17:51;;;;;;;;;;;8.20;73.20;;;;;;4981984;28;87374;-62
2023/11/17 03:20:17;;;;;;;;;;;8.20;73.30;;;;;;4975417;28;87034;-63
2023/11/17 03:22:46;;;;;;;;;;;8.20;73.20;;;;;;4994074;28;87981;-62
2023/11/17 03:25:15;;;;;;;;;;;8.20;73.30;;;;;;4981883;28;87131;-62
2023/11/17 03:27:44;;;;;;;;;;;8.20;73.30;;;;;;4977032;28;86967;-62
2023/11/17 03:30:10;;;;;;;;;;;8.20;73.30;;;;;;4986005;28;87673;-62
2023/11/17 03:32:36;;;;;;;;;;;8.20;73.20;;;;;;4984048;28;87018;-62
2023/11/17 03:35:03;;;;;;;;;;;8.20;73.10;;;;;;4976401;28;88134;-63
2023/11/17 03:37:30;;;;;;;;;;;8.20;73.10;;;;;;4981074;28;88027;-62
2023/11/17 03:39:55;;;;;;;;;;;8.10;73.30;;;;;;4979746;28;87027;-63
2023/11/17 03:42:21;;;;;;;;;;;8.20;73.20;;;;;;4978829;28;86965;-62
2023/11/17 03:44:48;;;;;;;;;;;8.20;73.30;;;;;;4987765;28;87686;-63
2023/11/17 03:47:15;;;;;;;;;;;8.10;73.20;;;;;;4980444;28;87368;-62
2023/11/17 03:49:43;;;;;;;;;;;8.10;73.20;;;;;;4978095;28;88385;-63
2023/11/17 03:52:14;;;;;;;;;;;8.10;73.40;;;;;;4979333;28;86327;-63
2023/11/17 03:54:39;;;;;;;;;;;8.10;73.30;;;;;;4975587;28;87433;-62
2023/11/17 03:57:06;;;;;;;;;;;8.10;73.30;;;;;;4978023;28;87678;-63
2023/11/17 03:59:32;;;;;;;;;;;8.10;73.40;;;;;;4976467;28;87880;-63
2023/11/17 04:01:58;;;;;;;;;;;8.10;73.40;;;;;;4975658;28;87622;-63
2023/11/17 04:04:25;;;;;;;;;;;8.10;73.30;;;;;;4975473;28;87533;-63
2023/11/17 04:06:52;;;;;;;;;;;8.10;73.30;;;;;;4980180;28;87016;-63
2023/11/17 04:09:20;;;;;;;;;;;8.10;73.40;;;;;;4984811;28;87672;-62
2023/11/17 04:11:46;;;;;;;;;;;8.10;73.60;;;;;;4980482;28;87025;-63
2023/11/17 04:14:12;;;;;;;;;;;8.00;73.50;;;;;;4977468;28;87041;-63
2023/11/17 04:16:38;;;;;;;;;;;8.10;73.50;;;;;;4978839;28;86248;-62
2023/11/17 04:19:03;;;;;;;;;;;8.10;73.50;;;;;;4982812;28;87097;-63
2023/11/17 04:21:29;;;;;;;;;;;8.10;73.50;;;;;;4977181;28;87157;-63
2023/11/17 04:23:55;;;;;;;;;;;8.10;73.60;;;;;;4975604;28;88248;-63
2023/11/17 04:26:20;;;;;;;;;;;8.10;73.30;;;;;;4978241;28;87503;-63
2023/11/17 04:28:47;;;;;;;;;;;8.00;73.30;;;;;;4988681;28;87006;-62
2023/11/17 04:31:13;;;;;;;;;;;8.00;73.50;;;;;;4983361;28;87366;-63
2023/11/17 04:33:38;;;;;;;;;;;8.00;73.50;;;;;;4975195;28;86958;-63
2023/11/17 04:36:04;;;;;;;;;;;8.00;73.70;;;;;;4983946;28;87808;-62
2023/11/17 04:38:30;;;;;;;;;;;8.00;73.70;;;;;;4985057;28;87102;-60
2023/11/17 04:40:56;;;;;;;;;;;8.00;73.60;;;;;;4982009;28;87676;-63
2023/11/17 04:43:21;;;;;;;;;;;8.00;73.50;;;;;;4980969;28;87700;-63
2023/11/17 04:45:48;;;;;;;;;;;8.00;73.50;;;;;;4975277;28;86980;-63
2023/11/17 04:48:14;;;;;;;;;;;8.00;73.50;;;;;;4981459;28;87987;-63
2023/11/17 04:50:40;;;;;;;;;;;8.00;73.70;;;;;;4985691;28;87325;-63
2023/11/17 04:53:05;;;;;;;;;;;8.00;73.70;;;;;;4981230;28;86997;-62
2023/11/17 04:55:31;;;;;;;;;;;7.90;73.60;;;;;;4985340;28;87890;-63
2023/11/17 04:57:56;;;;;;;;;;;7.90;73.80;;;;;;4985460;28;87082;-63
2023/11/17 05:00:23;;;;;;;;;;;7.90;73.70;;;;;;4980953;28;87099;-63
2023/11/17 05:02:49;;;;;;;;;;;7.90;73.80;;;;;;4988372;28;87744;-63
2023/11/17 05:05:15;;;;;;;;;;;7.90;73.80;;;;;;4987156;28;86332;-63
2023/11/17 05:07:44;;;;;;;;;;;7.90;73.90;;;;;;4982367;28;87494;-62
2023/11/17 05:10:11;;;;;;;;;;;7.90;74.40;;;;;;4986860;28;87845;-62
2023/11/17 05:12:37;;;;;;;;;;;7.90;73.80;;;;;;4983183;28;87988;-62
2023/11/17 05:15:03;;;;;;;;;;;7.90;73.80;;;;;;4983396;28;87609;-62
2023/11/17 05:17:33;;;;;;;;;;;7.90;74.00;;;;;;4989879;28;88759;-62
2023/11/17 05:20:00;;;;;;;;;;;7.90;73.80;;;;;;4987430;28;87127;-62
2023/11/17 05:22:25;;;;;;;;;;;7.90;73.80;;;;;;4982448;28;87969;-62
2023/11/17 05:24:53;;;;;;;;;;;7.90;73.80;;;;;;4984382;28;87067;-63
2023/11/17 05:27:19;;;;;;;;;;;8.00;73.80;;;;;;4984053;28;88014;-63
2023/11/17 05:29:44;;;;;;;;;;;7.90;73.70;;;;;;4978816;28;87077;-63
2023/11/17 05:32:10;;;;;;;;;;;8.00;73.70;;;;;;4984239;28;87192;-63
2023/11/17 05:34:35;;;;;;;;;;;8.00;73.80;;;;;;4978912;28;87140;-62
2023/11/17 05:37:02;;;;;;;;;;;8.00;73.80;;;;;;4983557;28;88835;-62
2023/11/17 05:39:27;;;;;;;;;;;8.00;73.80;;;;;;4978782;28;88110;-62
2023/11/17 05:41:53;;;;;;;;;;;8.00;73.70;;;;;;4988679;28;88138;-63
2023/11/17 05:44:19;;;;;;;;;;;8.00;73.60;;;;;;4979141;28;86940;-62
2023/11/17 05:46:44;;;;;;;;;;;8.00;73.80;;;;;;4979987;28;87318;-62
2023/11/17 05:49:10;;;;;;;;;;;8.00;73.60;;;;;;4982988;28;88631;-63
2023/11/17 05:51:35;;;;;;;;;;;8.00;73.70;;;;;;4982857;28;87112;-63
2023/11/17 05:54:01;;;;;;;;;;;8.00;73.70;;;;;;4987825;28;87872;-62
2023/11/17 05:56:27;;;;;;;;;;;8.00;73.80;;;;;;4982921;28;87278;-63
2023/11/17 05:58:52;;;;;;;;;;;8.00;73.70;;;;;;4984818;28;87190;-63
2023/11/17 06:01:18;;;;;;;;;;;8.00;73.80;;;;;;4982972;28;88389;-63
2023/11/17 06:03:43;;;;;;;;;;;8.00;73.80;;;;;;4983617;28;87011;-62
2023/11/17 06:06:09;;;;;;;;;;;8.00;73.90;;;;;;4985111;28;87348;-62
2023/11/17 06:08:35;;;;;;;;;;;8.00;73.70;;;;;;4979665;28;90086;-63
2023/11/17 06:11:00;;;;;;;;;;;8.00;73.70;;;;;;4983627;28;87089;-63
2023/11/17 06:13:26;;;;;;;;;;;8.00;73.70;;;;;;4984549;28;87620;-62
2023/11/17 06:15:52;;;;;;;;;;;8.00;73.80;;;;;;4982246;28;87621;-62
2023/11/17 06:18:18;;;;;;;;;;;8.00;73.70;;;;;;4990789;28;86966;-62
2023/11/17 06:20:43;;;;;;;;;;;8.00;73.70;;;;;;4981381;28;88031;-62
2023/11/17 06:23:09;;;;;;;;;;;7.90;73.70;;;;;;4983564;28;87057;-62
2023/11/17 06:25:35;;;;;;;;;;;7.90;73.60;;;;;;4978541;28;87883;-62
2023/11/17 06:28:00;;;;;;;;;;;8.00;73.60;;;;;;4979875;28;88400;-62
2023/11/17 06:30:26;;;;;;;;;;;8.00;73.80;;;;;;4978952;28;86956;-63
2023/11/17 06:32:51;;;;;;;;;;;7.90;73.90;;;;;;4986823;28;87137;-62
2023/11/17 06:35:17;;;;;;;;;;;8.00;73.70;;;;;;4979054;28;87989;-62
2023/11/17 06:37:43;;;;;;;;;;;8.00;73.80;;;;;;4987858;28;87589;-62
2023/11/17 06:40:10;;;;;;;;;;;8.00;74.00;;;;;;4982480;28;87797;-62
2023/11/17 06:42:36;;;;;;;;;;;8.00;73.80;;;;;;4975431;28;86402;-63
2023/11/17 06:45:01;;;;;;;;;;;8.00;73.80;;;;;;4979770;28;88347;-63
2023/11/17 06:47:27;;;;;;;;;;;8.00;73.90;;;;;;4982176;28;87752;-63
2023/11/17 06:49:53;;;;;;;;;;;8.00;73.80;;;;;;4977166;28;88479;-62
2023/11/17 06:52:18;;;;;;;;;;;8.00;73.80;;;;;;4977166;28;89168;-62
2023/11/17 06:54:44;;;;;;;;;;;8.00;73.90;;;;;;4983162;28;87819;-62
2023/11/17 06:57:10;;;;;;;;;;;8.00;73.90;;;;;;4976765;28;87153;-62
2023/11/17 06:59:36;;;;;;;;;;;8.00;73.70;;;;;;4981324;28;87023;-62
2023/11/17 07:02:03;;;;;;;;;;;8.00;73.90;;;;;;4977414;28;87385;-62
2023/11/17 07:04:30;;;;;;;;;;;8.00;74.00;;;;;;4979149;28;87916;-62
2023/11/17 07:06:55;;;;;;;;;;;8.00;74.00;;;;;;4980987;28;87206;-63
2023/11/17 07:09:23;;;;;;;;;;;8.00;73.90;;;;;;4979769;28;87263;-63
2023/11/17 07:11:54;;;;;;;;;;;8.00;74.00;;;;;;4975134;28;87655;-63
2023/11/17 07:14:19;;;;;;;;;;;8.00;73.90;;;;;;4973948;28;88741;-63
2023/11/17 07:16:48;;;;;;;;;;;8.00;74.00;;;;;;4983052;28;86962;-62
2023/11/17 07:19:16;;;;;;;;;;;8.00;74.10;;;;;;4980776;28;87450;-62
2023/11/17 07:21:42;;;;;;;;;;;8.00;73.90;;;;;;4977024;28;87106;-61
2023/11/17 07:24:10;;;;;;;;;;;8.00;73.80;;;;;;4980666;28;86982;-63
2023/11/17 07:26:36;;;;;;;;;;;8.00;74.00;;;;;;4982217;28;87578;-62
2023/11/17 07:29:02;;;;;;;;;;;8.00;74.00;;;;;;4978844;28;87152;-63
2023/11/17 07:31:29;;;;;;;;;;;8.00;73.80;;;;;;4980076;28;87116;-62
2023/11/17 07:33:54;;;;;;;;;;;8.00;74.50;;;;;;4982216;28;87681;-63
2023/11/17 07:36:21;;;;;;;;;;;8.00;74.00;;;;;;4979273;28;87123;-63
2023/11/17 07:38:51;;;;;;;;;;;8.00;74.00;;;;;;4977161;28;87977;-62
2023/11/17 07:41:18;;;;;;;;;;;8.00;73.70;;;;;;4985236;28;87644;-62
2023/11/17 07:43:43;;;;;;;;;;;8.00;73.90;;;;;;4979726;28;87286;-62
2023/11/17 07:46:09;;;;;;;;;;;8.00;73.80;;;;;;4979354;28;88042;-63
2023/11/17 07:48:34;;;;;;;;;;;8.00;73.90;;;;;;4976582;28;87644;-63
2023/11/17 07:51:00;;;;;;;;;;;8.00;73.90;;;;;;4981601;28;87238;-63
2023/11/17 07:53:26;;;;;;;;;;;8.00;74.10;;;;;;4977326;28;87464;-63
2023/11/17 07:55:55;;;;;;;;;;;8.00;73.80;;;;;;4977223;28;86278;-62
2023/11/17 07:58:20;;;;;;;;;;;8.00;73.90;;;;;;4979524;28;88601;-62
2023/11/17 08:00:49;;;;;;;;;;;8.00;73.90;;;;;;4982494;28;87856;-62
2023/11/17 08:03:16;;;;;;;;;;;8.00;74.10;;;;;;4981757;28;88019;-62
2023/11/17 08:05:43;;;;;;;;;;;8.00;73.70;;;;;;4972380;28;87771;-62
2023/11/17 08:08:09;;;;;;;;;;;8.00;74.20;;;;;;4976554;28;87016;-62
2023/11/17 08:10:35;;;;;;;;;;;8.00;73.80;;;;;;4978672;28;87363;-62
2023/11/17 08:13:03;;;;;;;;;;;8.00;74.00;;;;;;4984597;28;87704;-62
2023/11/17 08:15:29;;;;;;;;;;;8.00;74.10;;;;;;4976952;28;87034;-62
2023/11/17 08:17:55;;;;;;;;;;;8.00;74.10;;;;;;4975606;28;88720;-63
2023/11/17 08:20:22;;;;;;;;;;;8.00;73.90;;;;;;4979220;28;86869;-62
2023/11/17 08:22:48;;;;;;;;;;;8.00;74.20;;;;;;4976737;28;86982;-63
2023/11/17 08:25:14;;;;;;;;;;;8.00;73.80;;;;;;4975319;28;87353;-60
2023/11/17 08:27:41;;;;;;;;;;;8.00;74.00;;;;;;4976285;28;88053;-62
2023/11/17 08:30:07;;;;;;;;;;;8.00;74.10;;;;;;4981530;28;87912;-62
2023/11/17 08:32:36;;;;;;;;;;;8.00;74.10;;;;;;4979766;28;87961;-62
2023/11/17 08:35:02;;;;;;;;;;;8.00;74.10;;;;;;4976727;28;87753;-62
2023/11/17 08:37:32;;;;;;;;;;;8.00;74.00;;;;;;4979394;28;88731;-62
2023/11/17 08:39:59;;;;;;;;;;;8.00;74.10;;;;;;4981315;28;88964;-61
2023/11/17 08:42:25;;;;;;;;;;;8.00;73.80;;;;;;4963963;28;87083;-62
2023/11/17 08:44:51;;;;;;;;;;;8.00;74.00;;;;;;4979354;28;86858;-62
2023/11/17 08:47:16;;;;;;;;;;;8.10;73.90;;;;;;4982236;28;88069;-62
2023/11/17 08:49:42;;;;;;;;;;;8.00;74.10;;;;;;4983511;28;87957;-62
2023/11/17 08:52:08;;;;;;;;;;;8.00;73.90;;;;;;4980223;28;88405;-62
2023/11/17 08:54:34;;;;;;;;;;;8.00;74.20;;;;;;4977036;28;87031;-62
2023/11/17 08:56:59;;;;;;;;;;;8.00;73.90;;;;;;4980986;28;88781;-61
2023/11/17 08:59:25;;;;;;;;;;;8.00;74.10;;;;;;4983876;28;87803;-62
2023/11/17 09:01:51;;;;;;;;;;;8.00;74.10;;;;;;4985363;28;87086;-62
2023/11/17 09:04:16;;;;;;;;;;;8.00;74.80;;;;;;4979346;28;87177;-62
2023/11/17 09:06:43;;;;;;;;;;;8.00;74.10;;;;;;4980218;28;87771;-62
2023/11/17 09:09:12;;;;;;;;;;;8.00;74.10;;;;;;4987432;28;86344;-62
2023/11/17 09:11:38;;;;;;;;;;;8.00;74.00;;;;;;4984671;28;87859;-62
2023/11/17 09:14:06;;;;;;;;;;;8.00;74.00;;;;;;4980088;28;87070;-63
2023/11/17 09:16:32;;;;;;;;;;;8.00;74.20;;;;;;4981120;28;87856;-62
2023/11/17 09:18:59;;;;;;;;;;;8.00;74.20;;;;;;4978170;28;90775;-62
2023/11/17 09:21:24;;;;;;;;;;;8.00;74.30;;;;;;4975761;28;87017;-62
2023/11/17 09:23:50;;;;;;;;;;;8.10;74.20;;;;;;4978929;28;87616;-61
2023/11/17 09:26:15;;;;;;;;;;;8.00;74.10;;;;;;4980280;28;88613;-62
2023/11/17 09:28:41;;;;;;;;;;;8.00;74.50;;;;;;4984427;28;87103;-62
2023/11/17 09:31:07;;;;;;;;;;;8.00;74.20;;;;;;4980223;28;87645;-62
2023/11/17 09:33:32;;;;;;;;;;;8.00;74.30;;;;;;4981156;28;86263;-63
2023/11/17 09:36:00;;;;;;;;;;;8.00;74.30;;;;;;4977894;28;87139;-62
2023/11/17 09:38:26;;;;;;;;;;;8.00;74.10;;;;;;4975793;28;87997;-62
2023/11/17 09:40:52;;;;;;;;;;;8.10;74.00;;;;;;4979935;28;87980;-61
2023/11/17 09:43:18;;;;;;;;;;;8.00;73.90;;;;;;4978227;28;86984;-62
2023/11/17 09:45:45;;;;;;;;;;;8.00;74.20;;;;;;4979551;28;86957;-62
2023/11/17 09:48:11;;;;;;;;;;;8.00;74.10;;;;;;4982161;28;87379;-62
2023/11/17 09:50:39;;;;;;;;;;;8.00;74.40;;;;;;4988073;28;87031;-62
2023/11/17 09:53:05;;;;;;;;;;;8.00;74.20;;;;;;4982956;28;87035;-63
2023/11/17 09:55:31;;;;;;;;;;;8.00;74.30;;;;;;4978294;28;87341;-62
2023/11/17 09:58:00;;;;;;;;;;;8.00;74.30;;;;;;4982564;28;86957;-63
2023/11/17 10:00:27;;;;;;;;;;;8.00;74.20;;;;;;4977227;28;87063;-62
2023/11/17 10:02:57;;;;;;;;;;;8.00;74.30;;;;;;4978629;28;87123;-61
2023/11/17 10:05:23;;;;;;;;;;;8.00;74.30;;;;;;4972388;28;89695;-57
2023/11/17 10:07:50;;;;;;;;;;;8.00;74.20;;;;;;4979604;28;88501;-62
2023/11/17 10:10:18;;;;;;;;;;;8.00;74.40;;;;;;4979740;28;86985;-62
2023/11/17 10:12:47;;;;;;;;;;;8.00;74.20;;;;;;4981764;28;87587;-60
2023/11/17 10:15:13;;;;;;;;;;;8.10;74.20;;;;;;4973054;28;87517;-63
2023/11/17 10:17:41;;;;;;;;;;;8.00;74.40;;;;;;4983106;28;88035;-62
2023/11/17 10:20:17;;;;;;;;;;;8.10;74.20;;;;;;4962172;28;87082;-62
2023/11/17 10:22:47;;;;;;;;;;;8.10;74.20;;;;;;4979849;28;89474;-62
2023/11/17 10:25:13;;;;;;;;;;;8.10;74.10;;;;;;4976039;28;87512;-62
2023/11/17 10:27:40;;;;;;;;;;;8.10;73.90;;;;;;4983119;28;87152;-62
2023/11/17 10:30:07;;;;;;;;;;;8.10;74.00;;;;;;4979648;28;87929;-62
2023/11/17 10:32:36;;;;;;;;;;;8.10;73.90;;;;;;4980156;28;87714;-62
2023/11/17 10:35:11;;;;;;;;;;;8.10;74.10;;;;;;4981148;28;87066;-62
2023/11/17 10:37:37;;;;;;;;;;;8.10;74.20;;;;;;4981717;28;87754;-62
2023/11/17 10:40:03;;;;;;;;;;;8.10;74.10;;;;;;4979394;28;87089;-61
2023/11/17 10:42:32;;;;;;;;;;;8.10;74.30;;;;;;4982700;28;87386;-62
2023/11/17 10:44:57;;;;;;;;;;;8.10;74.30;;;;;;4977852;28;86997;-62
2023/11/17 10:47:23;;;;;;;;;;;8.00;74.20;;;;;;4981562;28;86158;-62
2023/11/17 10:50:08;;;;;;;;;;;8.10;74.60;;;;;;4975397;28;87136;-63
2023/11/17 10:52:34;;;;;;;;;;;8.10;74.40;;;;;;4980341;28;88083;-62
2023/11/17 10:54:59;;;;;;;;;;;8.10;74.30;;;;;;4975275;28;87958;-62
2023/11/17 10:57:26;;;;;;;;;;;8.10;74.30;;;;;;4985372;28;87901;-62
2023/11/17 10:59:52;;;;;;;;;;;8.10;74.20;;;;;;4977415;28;87242;-61
2023/11/17 11:02:19;;;;;;;;;;;8.10;74.20;;;;;;4980032;28;87001;-62
2023/11/17 11:04:46;;;;;;;;;;;8.20;74.20;;;;;;4976964;28;87609;-62
2023/11/17 11:07:14;;;;;;;;;;;8.20;74.00;;;;;;4979800;28;87002;-62
2023/11/17 11:09:40;;;;;;;;;;;8.10;74.30;;;;;;4973657;28;87053;-62
2023/11/17 11:12:06;;;;;;;;;;;8.10;73.90;;;;;;4979169;28;87003;-62
2023/11/17 11:14:32;;;;;;;;;;;8.10;74.20;;;;;;4977584;28;87024;-62
2023/11/17 11:16:58;;;;;;;;;;;8.10;74.10;;;;;;4986384;28;87081;-63
2023/11/17 11:19:31;;;;;;;;;;;8.10;74.40;;;;;;4957745;28;88075;-62
2023/11/17 11:22:00;;;;;;;;;;;8.10;74.20;;;;;;4980877;28;87894;-62
2023/11/17 11:24:33;;;;;;;;;;;8.10;74.40;;;;;;4978745;28;87497;-62
2023/11/17 11:27:00;;;;;;;;;;;8.10;74.60;;;;;;4978461;28;86933;-62
2023/11/17 11:29:26;;;;;;;;;;;8.10;74.30;;;;;;4980730;28;87075;-62
2023/11/17 11:31:52;;;;;;;;;;;8.20;74.60;;;;;;4981512;28;87838;-62
2023/11/17 11:34:18;;;;;;;;;;;8.30;74.60;;;;;;4979645;28;87208;-61
2023/11/17 11:36:45;;;;;;;;;;;8.30;74.50;;;;;;4975132;28;87049;-62
2023/11/17 11:39:12;;;;;;;;;;;8.20;74.30;;;;;;4978297;28;87521;-62
2023/11/17 11:41:38;;;;;;;;;;;8.30;74.50;;;;;;4980212;28;88705;-62
2023/11/17 11:44:04;;;;;;;;;;;8.30;74.30;;;;;;4975761;28;88389;-60
2023/11/17 11:46:30;;;;;;;;;;;8.30;74.50;;;;;;4974642;28;87040;-61
2023/11/17 11:48:57;;;;;;;;;;;8.30;74.20;;;;;;4983291;28;87078;-61
2023/11/17 11:51:25;;;;;;;;;;;8.30;74.20;;;;;;4980293;28;88072;-62
2023/11/17 11:53:53;;;;;;;;;;;8.30;74.30;;;;;;4972108;28;87067;-62
2023/11/17 11:56:19;;;;;;;;;;;8.30;74.30;;;;;;4975952;28;87183;-62
2023/11/17 11:58:48;;;;;;;;;;;8.30;74.50;;;;;;4977001;28;88158;-62
2023/11/17 12:01:16;;;;;;;;;;;8.30;74.30;;;;;;4970470;28;86343;-62
2023/11/17 12:03:42;;;;;;;;;;;8.30;74.40;;;;;;4975972;28;87031;-62
2023/11/17 12:06:07;;;;;;;;;;;8.30;74.30;;;;;;4975278;28;87021;-62
2023/11/17 12:08:33;;;;;;;;;;;8.30;74.50;;;;;;4976089;28;87931;-62
2023/11/17 12:11:11;;;;;;;;;;;8.30;74.50;;;;;;4977864;28;87620;-62
2023/11/17 12:13:43;;;;;;;;;;;8.30;74.50;;;;;;4977715;28;87672;-63
2023/11/17 12:16:16;;;;;;;;;;;8.30;74.60;;;;;;4981791;28;87080;-62
2023/11/17 12:18:43;;;;;;;;;;;8.30;74.60;;;;;;4982863;28;87471;-62
2023/11/17 12:21:19;;;;;;;;;;;8.30;74.60;;;;;;4981387;28;87021;-62
2023/11/17 12:23:54;;;;;;;;;;;8.30;74.50;;;;;;4977297;28;88599;-62
2023/11/17 12:26:21;;;;;;;;;;;8.40;74.60;;;;;;4978805;28;86400;-62
2023/11/17 12:28:47;;;;;;;;;;;8.30;74.70;;;;;;4980059;28;87050;-62
2023/11/17 12:31:14;;;;;;;;;;;8.30;74.60;;;;;;4978099;28;87588;-62
2023/11/17 12:33:42;;;;;;;;;;;8.30;74.80;;;;;;4978430;28;88292;-62
2023/11/17 12:36:09;;;;;;;;;;;8.30;74.70;;;;;;4982095;28;87960;-62
2023/11/17 12:38:35;;;;;;;;;;;8.30;74.60;;;;;;4976614;28;87642;-62
2023/11/17 12:41:00;;;;;;;;;;;8.40;74.80;;;;;;4957686;28;87712;-62
2023/11/17 12:43:30;;;;;;;;;;;8.40;74.80;;;;;;4978546;28;87064;-62
2023/11/17 12:46:00;;;;;;;;;;;8.30;74.80;;;;;;4982163;28;87458;-62
2023/11/17 12:48:27;;;;;;;;;;;8.30;75.00;;;;;;4978051;28;86980;-63
2023/11/17 12:50:54;;;;;;;;;;;8.40;74.80;;;;;;4980608;28;89610;-62
2023/11/17 12:53:22;;;;;;;;;;;8.40;74.80;;;;;;4977340;28;87014;-63
2023/11/17 12:55:49;;;;;;;;;;;8.30;74.90;;;;;;4974875;28;89615;-62
2023/11/17 12:58:15;;;;;;;;;;;8.40;74.80;;;;;;4976942;28;88937;-62
2023/11/17 13:00:40;;;;;;;;;;;8.40;74.90;;;;;;4977034;28;87092;-63
2023/11/17 13:03:07;;;;;;;;;;;8.40;75.00;;;;;;4976340;28;87018;-62
2023/11/17 13:05:33;;;;;;;;;;;8.40;75.00;;;;;;4973776;28;87768;-62
2023/11/17 13:07:58;;;;;;;;;;;8.40;75.00;;;;;;4980209;28;87041;-63
2023/11/17 13:10:24;;;;;;;;;;;8.40;74.90;;;;;;4973412;28;87617;-62
2023/11/17 13:12:49;;;;;;;;;;;8.40;75.00;;;;;;4977073;28;87176;-62
2023/11/17 13:15:15;;;;;;;;;;;8.40;75.10;;;;;;4981183;28;87107;-62
2023/11/17 13:17:42;;;;;;;;;;;8.40;75.10;;;;;;4974821;28;87819;-62
2023/11/17 13:20:13;;;;;;;;;;;8.40;74.80;;;;;;4979240;28;86976;-62
2023/11/17 13:22:42;;;;;;;;;;;8.40;75.00;;;;;;4977486;28;87727;-62
2023/11/17 13:25:09;;;;;;;;;;;8.40;74.90;;;;;;4979354;28;87785;-62
2023/11/17 13:27:44;;;;;;;;;;;8.40;75.00;;;;;;4983238;28;86951;-61
2023/11/17 13:30:11;;;;;;;;;;;8.30;74.90;;;;;;4980364;28;87699;-62
2023/11/17 13:32:54;;;;;;;;;;;8.40;75.20;;;;;;4979806;28;87002;-62
2023/11/17 13:35:20;;;;;;;;;;;8.40;75.10;;;;;;4979280;28;87669;-63
2023/11/17 13:37:50;;;;;;;;;;;8.40;75.30;;;;;;4981301;28;87612;-62
2023/11/17 13:40:26;;;;;;;;;;;8.40;74.90;;;;;;4977388;28;86265;-62
2023/11/17 13:42:54;;;;;;;;;;;8.40;75.20;;;;;;4976974;28;86937;-62
2023/11/17 13:45:20;;;;;;;;;;;8.40;75.10;;;;;;4977158;28;87643;-62
2023/11/17 13:47:55;;;;;;;;;;;8.40;75.10;;;;;;4978912;28;87913;-62
2023/11/17 13:50:21;;;;;;;;;;;8.40;74.80;;;;;;4982991;28;87928;-62
2023/11/17 13:52:47;;;;;;;;;;;8.40;75.20;;;;;;4976820;28;87364;-62
2023/11/17 13:55:13;;;;;;;;;;;8.40;74.70;;;;;;4980434;28;87021;-63
2023/11/17 13:57:38;;;;;;;;;;;8.40;75.20;;;;;;4979879;28;87637;-62
2023/11/17 14:00:06;;;;;;;;;;;8.40;75.10;;;;;;4980513;28;87061;-63
2023/11/17 14:02:31;;;;;;;;;;;8.40;75.10;;;;;;4976295;28;87280;-63
2023/11/17 14:05:00;;;;;;;;;;;8.40;74.90;;;;;;4979470;28;87023;-62
2023/11/17 14:07:25;;;;;;;;;;;8.40;75.00;;;;;;4977280;28;87040;-63
2023/11/17 14:09:52;;;;;;;;;;;8.40;75.10;;;;;;4977025;28;87340;-63
2023/11/17 14:12:18;;;;;;;;;;;8.30;75.10;;;;;;4980469;28;88025;-63
2023/11/17 14:14:45;;;;;;;;;;;8.40;75.50;;;;;;4980305;28;87687;-62
2023/11/17 14:17:11;;;;;;;;;;;8.40;75.10;;;;;;4977051;28;87978;-63
2023/11/17 14:19:38;;;;;;;;;;;8.40;75.30;;;;;;4978806;28;86980;-63
2023/11/17 14:22:04;;;;;;;;;;;8.40;75.10;;;;;;4979489;28;87233;-63
2023/11/17 14:24:29;;;;;;;;;;;8.40;75.30;;;;;;4976881;28;87934;-63
2023/11/17 14:26:55;;;;;;;;;;;8.40;75.20;;;;;;4977170;28;87080;-63
2023/11/17 14:29:22;;;;;;;;;;;8.40;75.50;;;;;;4981162;28;87289;-63